KMBS/MBS METAR and TAF weather

Enter ICAO airport designator
Station Type Date Time Source
KMBS METAR 2019/04/24 21:53 UTC NOAA

KMBS 242153Z 17005KT 10SM CLR 16/M01 A2991 RMK AO2 SLP133 T01611011


Station Type Date Time Source
KMBS Decoded METAR 2019/04/24 21:53 UTC NOAA

MBS INTERNATIONAL AIRPORT, MI, United States (KMBS) 43-32N 084-05W 202M
Apr 24, 2019 - 05:53 PM EDT / 2019.04.24 2153 UTC
Wind: from the S (170 degrees) at 6 MPH (5 KT):0
Visibility: 10 mile(s):0
Sky conditions: clear
Temperature: 61.0 F (16.1 C)
Dew Point: 30.0 F (-1.1 C)
Relative Humidity: 30%
Pressure (altimeter): 29.91 in. Hg (1012 hPa)
ob: KMBS 242153Z 17005KT 10SM CLR 16/M01 A2991 RMK AO2 SLP133 T01611011
cycle: 22

Station Type Date Time Source
KMBS TAF 2019/04/24 18:22 UTC NOAA

TAF KMBS 241720Z 2418/2518 VRB05KT P6SM SKC
FM242200 17005KT P6SM FEW250
FM250600 18004KT P6SM SCT250

Example: see airport list